createdAt,value
2019-04-10T00:00:37.416Z,26.20
2019-04-10T00:03:06.305Z,25.57
2019-04-10T00:05:36.100Z,26.97
2019-04-10T00:08:06.031Z,26.40
2019-04-10T00:10:36.099Z,26.43
2019-04-10T00:13:04.884Z,27.50
2019-04-10T00:15:34.661Z,28.70
2019-04-10T00:18:03.435Z,24.53
2019-04-10T00:20:34.742Z,26.23
2019-04-10T00:23:03.326Z,25.33
2019-04-10T00:25:39.078Z,26.73
2019-04-10T00:28:08.148Z,26.53
2019-04-10T00:30:37.572Z,25.37
2019-04-10T00:33:06.252Z,25.20
2019-04-10T00:35:35.192Z,24.33
2019-04-10T00:38:03.831Z,25.37
2019-04-10T00:40:33.212Z,24.20
2019-04-10T00:43:04.992Z,27.43
2019-04-10T00:45:33.581Z,24.53
2019-04-10T00:48:02.249Z,23.30
2019-04-10T00:50:30.829Z,24.40
2019-04-10T00:52:59.401Z,23.93
2019-04-10T00:55:28.833Z,25.30
2019-04-10T00:57:58.201Z,24.20
2019-04-10T01:00:28.784Z,22.63
2019-04-10T01:02:57.404Z,22.67
2019-04-10T01:05:33.315Z,23.83
2019-04-10T01:08:02.352Z,23.50
2019-04-10T01:10:34.566Z,22.43
2019-04-10T01:13:08.370Z,24.20
2019-04-10T01:15:38.619Z,22.63
2019-04-10T01:18:15.667Z,22.53
2019-04-10T01:20:48.016Z,23.23
2019-04-10T01:23:24.989Z,24.60
2019-04-10T01:26:05.128Z,23.47
2019-04-10T01:28:34.124Z,23.07
2019-04-10T01:31:02.697Z,24.10
2019-04-10T01:33:42.976Z,22.93
2019-04-10T01:36:13.099Z,23.87
2019-04-10T01:38:41.883Z,22.47
2019-04-10T01:41:10.502Z,23.83
2019-04-10T01:43:39.286Z,22.50
2019-04-10T01:46:08.391Z,22.80
2019-04-10T01:48:37.033Z,22.90
2019-04-10T01:51:06.619Z,23.40
2019-04-10T01:53:35.651Z,22.73
2019-04-10T01:56:05.262Z,22.67
2019-04-10T01:58:39.736Z,24.13
2019-04-10T02:01:21.722Z,25.30
2019-04-10T02:03:50.324Z,24.37
2019-04-10T02:06:18.983Z,24.40
2019-04-10T02:08:47.844Z,22.73
2019-04-10T02:11:18.114Z,23.33
2019-04-10T02:13:47.611Z,22.93
2019-04-10T02:16:16.726Z,23.10
2019-04-10T02:18:47.880Z,22.23
2019-04-10T02:21:16.530Z,22.77
2019-04-10T02:23:47.922Z,25.27
2019-04-10T02:26:19.109Z,22.30
2019-04-10T02:28:47.726Z,22.53
2019-04-10T02:31:16.294Z,22.20
2019-04-10T02:33:47.687Z,23.57
2019-04-10T02:36:17.367Z,22.37
2019-04-10T02:38:59.257Z,23.63
2019-04-10T02:41:19.329Z,23.93
2019-04-10T02:43:48.057Z,21.90
2019-04-10T02:46:19.573Z,21.80
2019-04-10T02:48:50.107Z,23.17
2019-04-10T02:51:20.020Z,23.47
2019-04-10T02:53:50.145Z,23.47
2019-04-10T02:56:20.804Z,22.13
2019-04-10T02:58:49.814Z,23.47
2019-04-10T03:01:21.098Z,22.60
2019-04-10T03:03:52.569Z,22.63
2019-04-10T03:06:22.850Z,23.10
2019-04-10T03:09:07.605Z,22.30
2019-04-10T03:11:24.326Z,22.97
2019-04-10T03:13:53.600Z,22.40
2019-04-10T03:16:23.661Z,22.40
2019-04-10T03:18:52.943Z,22.17
2019-04-10T03:21:22.844Z,22.63
2019-04-10T03:23:51.443Z,22.53
2019-04-10T03:26:20.074Z,22.13
2019-04-10T03:28:49.639Z,21.23
2019-04-10T03:31:20.123Z,22.83
2019-04-10T03:33:55.480Z,22.40
2019-04-10T03:36:23.708Z,21.70
2019-04-10T03:38:58.539Z,21.87
2019-04-10T03:41:24.053Z,23.63
2019-04-10T03:43:54.422Z,22.33
2019-04-10T03:46:23.572Z,22.90
2019-04-10T03:48:52.210Z,21.70
2019-04-10T03:51:20.810Z,22.60
2019-04-10T03:53:49.384Z,24.20
2019-04-10T03:56:18.084Z,21.10
2019-04-10T03:58:52.192Z,22.70
2019-04-10T04:01:20.836Z,22.97
2019-04-10T04:03:49.387Z,21.50
2019-04-10T04:06:17.958Z,24.70
2019-04-10T04:08:46.586Z,22.50
2019-04-10T04:11:15.629Z,23.40
2019-04-10T04:13:44.266Z,22.60
2019-04-10T04:16:12.991Z,24.77
2019-04-10T04:18:41.619Z,21.90
2019-04-10T04:21:10.342Z,22.00
2019-04-10T04:23:38.940Z,21.67
2019-04-10T04:26:07.568Z,22.50
2019-04-10T04:28:36.281Z,22.97
2019-04-10T04:31:05.266Z,22.30
2019-04-10T04:33:34.443Z,22.87
2019-04-10T04:36:03.865Z,22.97
2019-04-10T04:38:36.821Z,23.63
2019-04-10T04:41:05.423Z,22.60
2019-04-10T04:43:34.073Z,22.77
2019-04-10T04:46:04.354Z,22.27
2019-04-10T04:48:32.959Z,22.60
2019-04-10T04:51:11.239Z,22.53
2019-04-10T04:53:42.131Z,22.27
2019-04-10T04:56:13.875Z,22.70
2019-04-10T04:58:43.437Z,20.87
2019-04-10T05:01:16.964Z,22.57
2019-04-10T05:03:48.452Z,21.93
2019-04-10T05:06:18.049Z,21.40
2019-04-10T05:08:48.561Z,22.73
2019-04-10T05:11:20.453Z,23.07
2019-04-10T05:13:49.114Z,22.53
2019-04-10T05:16:18.641Z,23.13
2019-04-10T05:18:47.702Z,22.97
2019-04-10T05:21:17.094Z,22.53
2019-04-10T05:23:45.671Z,21.17
2019-04-10T05:26:14.471Z,23.77
2019-04-10T05:28:44.470Z,20.83
2019-04-10T05:31:13.455Z,24.10
2019-04-10T05:33:42.293Z,22.93
2019-04-10T05:36:13.192Z,22.50
2019-04-10T05:38:42.144Z,21.93
2019-04-10T05:41:11.236Z,22.13
2019-04-10T05:43:42.555Z,23.47
2019-04-10T05:46:12.362Z,21.40
2019-04-10T05:48:44.740Z,20.47
2019-04-10T05:51:15.068Z,22.03
2019-04-10T05:53:43.697Z,22.53
2019-04-10T05:56:19.001Z,21.57
2019-04-10T05:58:46.971Z,22.27
2019-04-10T06:01:32.437Z,22.30
2019-04-10T06:03:52.902Z,21.93
2019-04-10T06:06:22.230Z,20.27
2019-04-10T06:08:53.654Z,22.40
2019-04-10T06:11:22.554Z,22.33
2019-04-10T06:13:51.121Z,21.03
2019-04-10T06:16:19.739Z,20.53
2019-04-10T06:18:48.302Z,20.33
2019-04-10T06:21:18.851Z,20.27
2019-04-10T06:23:47.807Z,21.63
2019-04-10T06:26:17.049Z,19.60
2019-04-10T06:28:46.484Z,21.20
2019-04-10T06:31:15.168Z,21.27
2019-04-10T06:33:44.418Z,20.77
2019-04-10T06:36:13.970Z,21.80
2019-04-10T06:38:43.310Z,23.20
2019-04-10T06:41:14.543Z,20.03
2019-04-10T06:43:43.361Z,22.07
2019-04-10T06:46:14.585Z,21.03
2019-04-10T06:48:43.138Z,20.20
2019-04-10T06:51:12.309Z,23.03
2019-04-10T06:54:04.552Z,20.73
2019-04-10T06:56:29.208Z,21.60
2019-04-10T06:58:58.343Z,21.93
2019-04-10T07:01:39.077Z,21.50
2019-04-10T07:04:02.773Z,21.80
2019-04-10T07:06:44.546Z,23.97
2019-04-10T07:08:58.993Z,21.67
2019-04-10T07:11:32.511Z,23.70
2019-04-10T07:14:01.592Z,23.00
2019-04-10T07:16:35.585Z,23.10
2019-04-10T07:19:08.833Z,23.07
2019-04-10T07:21:42.744Z,21.67
2019-04-10T07:24:14.988Z,22.17
2019-04-10T07:26:44.597Z,22.60
2019-04-10T07:29:16.406Z,21.40
2019-04-10T07:31:44.591Z,23.43
2019-04-10T07:34:13.295Z,23.33
2019-04-10T07:36:44.870Z,22.40
2019-04-10T07:39:13.760Z,23.77
2019-04-10T07:41:47.349Z,21.73
2019-04-10T07:44:21.396Z,22.93
2019-04-10T07:46:50.795Z,26.23
2019-04-10T07:49:26.648Z,23.43
2019-04-10T07:51:56.436Z,22.97
2019-04-10T07:54:28.869Z,23.23
2019-04-10T07:56:58.388Z,22.50
2019-04-10T07:59:27.199Z,22.73
2019-04-10T08:01:55.997Z,21.43
2019-04-10T08:04:24.695Z,23.27
2019-04-10T08:06:54.325Z,22.27
2019-04-10T08:09:22.959Z,22.93
2019-04-10T08:11:51.524Z,23.43
2019-04-10T08:14:23.764Z,22.27
2019-04-10T08:16:55.375Z,21.60
2019-04-10T08:19:25.369Z,18.67
2019-04-10T08:21:54.890Z,19.57
2019-04-10T08:24:23.830Z,16.97
2019-04-10T08:26:52.699Z,16.57
2019-04-10T08:29:23.898Z,15.93
2019-04-10T08:31:55.995Z,15.13
2019-04-10T08:34:29.261Z,13.80
2019-04-10T08:36:57.898Z,14.33
2019-04-10T08:39:35.265Z,13.80
2019-04-10T08:41:57.929Z,15.20
2019-04-10T08:44:27.676Z,14.13
2019-04-10T08:47:11.166Z,12.90
2019-04-10T08:49:43.182Z,13.50
2019-04-10T08:52:19.931Z,12.70
2019-04-10T08:54:49.040Z,14.00
2019-04-10T08:57:21.399Z,14.40
2019-04-10T08:59:50.077Z,13.70
2019-04-10T09:02:21.921Z,13.50
2019-04-10T09:04:50.778Z,14.37
2019-04-10T09:07:20.341Z,13.87
2019-04-10T09:09:49.890Z,13.33
2019-04-10T09:12:18.525Z,13.43
2019-04-10T09:14:47.567Z,13.10
2019-04-10T09:17:19.423Z,14.20
2019-04-10T09:19:48.020Z,12.07
2019-04-10T09:22:24.907Z,12.30
2019-04-10T09:24:54.927Z,13.50
2019-04-10T09:27:24.682Z,12.30
2019-04-10T09:29:54.168Z,13.47
2019-04-10T09:32:22.809Z,14.20
2019-04-10T09:34:52.051Z,12.97
2019-04-10T09:37:21.941Z,12.67
2019-04-10T09:39:52.366Z,13.90
2019-04-10T09:42:21.525Z,13.27
2019-04-10T09:44:50.677Z,13.23
2019-04-10T09:47:20.532Z,13.47
2019-04-10T09:49:49.333Z,14.30
2019-04-10T09:52:18.702Z,14.30
2019-04-10T09:54:50.939Z,13.23
2019-04-10T09:57:20.091Z,12.80
2019-04-10T09:59:48.975Z,12.73
2019-04-10T10:02:23.493Z,13.17
2019-04-10T10:04:52.074Z,15.60
2019-04-10T10:07:20.767Z,16.17
2019-04-10T10:09:51.446Z,17.33
2019-04-10T10:12:24.221Z,18.90
2019-04-10T10:14:56.991Z,17.50
2019-04-10T10:17:32.916Z,19.07
2019-04-10T10:20:05.686Z,17.33
2019-04-10T10:22:34.042Z,17.90
2019-04-10T10:25:02.966Z,18.73
2019-04-10T10:27:35.760Z,17.80
2019-04-10T10:30:07.774Z,18.23
2019-04-10T10:32:37.189Z,18.37
2019-04-10T10:35:07.227Z,19.10
2019-04-10T10:37:36.645Z,19.37
2019-04-10T10:40:11.646Z,20.33
2019-04-10T10:42:45.558Z,20.20
2019-04-10T10:45:17.108Z,22.17
2019-04-10T10:47:46.460Z,19.70
2019-04-10T10:50:15.672Z,18.97
2019-04-10T10:52:45.891Z,20.73
2019-04-10T10:55:15.646Z,20.20
2019-04-10T10:57:44.225Z,19.80
2019-04-10T11:00:34.059Z,17.40
2019-04-10T11:03:02.747Z,18.10
2019-04-10T11:05:31.935Z,16.90
2019-04-10T11:08:02.785Z,16.63
2019-04-10T11:10:39.012Z,16.83
2019-04-10T11:13:26.551Z,16.13
2019-04-10T11:16:38.977Z,16.33
2019-04-10T11:21:40.443Z,17.00
2019-04-10T11:25:03.778Z,16.63
2019-04-10T11:26:56.316Z,17.07
2019-04-10T11:29:26.512Z,17.13
2019-04-10T11:31:55.607Z,17.37
2019-04-10T11:34:24.337Z,17.40
2019-04-10T11:37:12.961Z,18.37
2019-04-10T11:39:28.142Z,17.17
2019-04-10T11:41:55.884Z,16.33
2019-04-10T11:44:27.276Z,18.03
2019-04-10T11:47:02.883Z,18.60
2019-04-10T11:49:42.805Z,18.43
2019-04-10T11:52:39.548Z,16.60
2019-04-10T11:54:46.322Z,16.13
2019-04-10T11:57:16.660Z,15.83
2019-04-10T11:59:47.413Z,16.60
2019-04-10T12:02:17.120Z,17.23
2019-04-10T12:04:53.881Z,17.00
2019-04-10T12:07:52.970Z,16.40
2019-04-10T12:12:17.389Z,17.27
2019-04-10T12:14:49.995Z,19.10
2019-04-10T12:17:18.624Z,17.43
2019-04-10T12:19:47.276Z,18.47
2019-04-10T12:22:19.139Z,17.40
2019-04-10T12:25:02.949Z,18.17
2019-04-10T12:27:34.230Z,17.50
2019-04-10T12:30:05.255Z,17.40
2019-04-10T12:32:39.252Z,18.40
2019-04-10T12:35:08.825Z,17.07
2019-04-10T12:37:37.425Z,18.27
2019-04-10T12:40:07.678Z,18.07
2019-04-10T12:42:36.596Z,17.60
2019-04-10T12:45:06.335Z,18.90
2019-04-10T12:47:35.052Z,19.17
2019-04-10T12:50:09.122Z,18.20
2019-04-10T12:52:38.709Z,17.80
2019-04-10T12:55:08.294Z,17.73
2019-04-10T12:57:37.447Z,17.67
2019-04-10T13:00:12.233Z,16.77
2019-04-10T13:02:40.934Z,16.97
2019-04-10T13:05:11.324Z,17.63
2019-04-10T13:07:40.492Z,17.10
2019-04-10T13:10:09.303Z,17.60
2019-04-10T13:12:37.886Z,18.50
2019-04-10T13:15:10.919Z,17.83
2019-04-10T13:17:40.765Z,17.13
2019-04-10T13:20:14.011Z,18.27
2019-04-10T13:22:42.574Z,16.97
2019-04-10T13:25:12.501Z,18.77
2019-04-10T13:27:41.471Z,17.87
2019-04-10T13:30:14.207Z,18.40
2019-04-10T13:32:42.527Z,17.70
2019-04-10T13:35:11.320Z,17.77
2019-04-10T13:37:39.972Z,18.53
2019-04-10T13:40:09.115Z,18.30
2019-04-10T13:42:37.699Z,18.47
2019-04-10T13:45:09.748Z,18.70
2019-04-10T13:47:43.096Z,18.50
2019-04-10T13:50:14.731Z,19.17
2019-04-10T13:52:45.030Z,18.30
2019-04-10T13:55:14.878Z,17.53
2019-04-10T13:57:44.455Z,17.77
2019-04-10T14:00:23.902Z,17.00
2019-04-10T14:02:52.531Z,17.50
2019-04-10T14:05:24.137Z,17.97
2019-04-10T14:07:53.436Z,17.53
2019-04-10T14:10:22.906Z,17.20
2019-04-10T14:12:51.579Z,17.90
2019-04-10T14:15:20.288Z,17.90
2019-04-10T14:17:52.130Z,18.53
2019-04-10T14:20:23.538Z,17.63
2019-04-10T14:23:02.743Z,17.60
2019-04-10T14:25:42.108Z,17.40
2019-04-10T14:28:11.075Z,17.33
2019-04-10T14:30:45.268Z,16.90
2019-04-10T14:33:14.898Z,16.57
2019-04-10T14:35:43.538Z,17.83
2019-04-10T14:38:12.852Z,17.53
2019-04-10T14:40:47.288Z,16.20
2019-04-10T14:43:19.212Z,18.17
2019-04-10T14:45:48.026Z,17.10
2019-04-10T14:48:18.262Z,18.27
2019-04-10T14:50:47.085Z,18.20
2019-04-10T14:53:15.718Z,17.40
2019-04-10T14:56:06.962Z,18.07
2019-04-10T14:58:36.964Z,16.70
2019-04-10T15:01:08.361Z,16.77
2019-04-10T15:03:36.190Z,18.07
2019-04-10T15:06:07.010Z,18.10
2019-04-10T15:08:36.320Z,17.50
2019-04-10T15:11:10.839Z,17.27
2019-04-10T15:13:42.482Z,16.90
2019-04-10T15:16:12.568Z,17.63
2019-04-10T15:18:41.346Z,17.77
2019-04-10T15:21:10.304Z,17.83
2019-04-10T15:23:39.159Z,16.37
2019-04-10T15:26:08.055Z,17.70
2019-04-10T15:28:36.730Z,17.50
2019-04-10T15:31:05.313Z,17.50
2019-04-10T15:33:35.037Z,16.83
2019-04-10T15:36:04.043Z,17.60
2019-04-10T15:38:33.933Z,17.27
2019-04-10T15:41:02.982Z,16.00
2019-04-10T15:43:31.603Z,17.13
2019-04-10T15:46:00.236Z,15.53
2019-04-10T15:48:33.623Z,16.00
2019-04-10T15:51:03.947Z,17.13
2019-04-10T15:53:34.481Z,16.83
2019-04-10T15:56:03.449Z,15.53
2019-04-10T15:58:33.262Z,17.50
2019-04-10T16:01:03.849Z,16.37
2019-04-10T16:03:32.940Z,15.57
2019-04-10T16:06:03.971Z,16.43
2019-04-10T16:08:32.807Z,15.77
2019-04-10T16:11:09.754Z,15.57
2019-04-10T16:13:40.877Z,14.80
2019-04-10T16:16:27.579Z,15.07
2019-04-10T16:18:57.898Z,15.17
2019-04-10T16:21:26.904Z,15.77
2019-04-10T16:24:09.141Z,15.63
2019-04-10T16:26:49.554Z,14.77
2019-04-10T16:29:18.266Z,14.20
2019-04-10T16:31:58.476Z,14.67
2019-04-10T16:34:27.316Z,15.50
2019-04-10T16:37:00.384Z,14.10
2019-04-10T16:39:34.140Z,15.63
2019-04-10T16:42:02.297Z,13.43
2019-04-10T16:44:31.006Z,14.27
2019-04-10T16:46:59.570Z,14.33
2019-04-10T16:49:28.882Z,14.30
2019-04-10T16:51:58.690Z,14.07
2019-04-10T16:54:29.243Z,13.07
2019-04-10T16:57:00.437Z,13.67
2019-04-10T16:59:30.020Z,14.27
2019-04-10T17:02:09.387Z,13.80
2019-04-10T17:04:42.247Z,14.20
2019-04-10T17:07:23.870Z,13.13
2019-04-10T17:10:04.471Z,12.87
2019-04-10T17:12:27.555Z,13.63
2019-04-10T17:14:56.481Z,12.77
2019-04-10T17:17:26.337Z,13.77
2019-04-10T17:19:59.075Z,13.67
2019-04-10T17:22:32.405Z,12.47
2019-04-10T17:25:04.034Z,13.30
2019-04-10T17:27:32.662Z,13.00
2019-04-10T17:30:01.411Z,13.67
2019-04-10T17:32:31.146Z,12.90
2019-04-10T17:34:59.923Z,13.10
2019-04-10T17:37:29.713Z,12.37
2019-04-10T17:39:59.739Z,12.80
2019-04-10T17:42:32.467Z,12.70
2019-04-10T17:45:00.830Z,12.90
2019-04-10T17:47:29.520Z,11.80
2019-04-10T17:49:58.134Z,13.37
2019-04-10T17:52:28.491Z,13.47
2019-04-10T17:54:58.876Z,12.30
2019-04-10T17:57:36.510Z,13.43
2019-04-10T17:59:58.557Z,12.80
2019-04-10T18:02:33.081Z,11.90
2019-04-10T18:05:02.445Z,11.63
2019-04-10T18:07:32.204Z,11.80
2019-04-10T18:10:00.871Z,11.50
2019-04-10T18:12:31.925Z,11.83
2019-04-10T18:15:01.871Z,11.87
2019-04-10T18:17:31.210Z,11.73
2019-04-10T18:20:00.749Z,12.00
2019-04-10T18:22:32.612Z,11.40
2019-04-10T18:25:01.424Z,12.03
2019-04-10T18:27:30.269Z,11.40
2019-04-10T18:29:59.410Z,11.93
2019-04-10T18:32:28.089Z,12.97
2019-04-10T18:34:56.695Z,11.27
2019-04-10T18:37:25.622Z,12.20
2019-04-10T18:39:54.914Z,12.90
2019-04-10T18:42:24.345Z,12.60
2019-04-10T18:44:53.325Z,13.17
2019-04-10T18:47:21.940Z,12.57
2019-04-10T18:49:50.490Z,11.77
2019-04-10T18:52:19.368Z,11.87
2019-04-10T18:54:47.950Z,11.93
2019-04-10T18:57:18.558Z,12.00
2019-04-10T19:00:03.548Z,12.27
2019-04-10T19:02:36.975Z,11.90
2019-04-10T19:05:13.892Z,12.97
2019-04-10T19:07:42.826Z,11.47
2019-04-10T19:10:12.794Z,11.30
2019-04-10T19:12:41.568Z,11.17
2019-04-10T19:15:13.144Z,11.27
2019-04-10T19:17:43.490Z,11.67
2019-04-10T19:20:13.500Z,10.40
2019-04-10T19:22:44.906Z,11.07
2019-04-10T19:25:14.552Z,10.10
2019-04-10T19:27:44.366Z,10.57
2019-04-10T19:30:32.402Z,10.33
2019-04-10T19:33:01.689Z,10.53
2019-04-10T19:35:31.084Z,10.30
2019-04-10T19:38:00.899Z,10.77
2019-04-10T19:40:29.948Z,10.50
2019-04-10T19:43:01.987Z,10.30
2019-04-10T19:45:32.101Z,9.47
2019-04-10T19:48:01.158Z,9.97
2019-04-10T19:50:55.525Z,9.60
2019-04-10T19:53:47.824Z,9.43
2019-04-10T19:56:28.647Z,9.53
2019-04-10T19:58:57.206Z,9.27
2019-04-10T20:01:31.246Z,10.07
2019-04-10T20:03:59.836Z,10.07
2019-04-10T20:06:32.195Z,8.90
2019-04-10T20:09:00.953Z,8.73
2019-04-10T20:11:36.634Z,8.67
2019-04-10T20:14:08.489Z,8.60
2019-04-10T20:16:47.804Z,8.23
2019-04-10T20:19:23.137Z,9.07
2019-04-10T20:21:52.418Z,9.67
2019-04-10T20:24:23.624Z,9.17
2019-04-10T20:26:56.424Z,8.00
2019-04-10T20:29:26.699Z,9.00
2019-04-10T20:31:58.948Z,9.63
2019-04-10T20:34:27.806Z,8.70
2019-04-10T20:37:08.451Z,7.93
2019-04-10T20:39:37.038Z,8.93
2019-04-10T20:42:09.947Z,7.80
2019-04-10T20:44:38.749Z,7.83
2019-04-10T20:47:07.416Z,7.70
2019-04-10T20:49:40.457Z,8.70
2019-04-10T20:52:11.485Z,8.87
2019-04-10T20:54:42.089Z,8.50
2019-04-10T20:57:31.953Z,8.57
2019-04-10T21:00:01.534Z,8.63
2019-04-10T21:02:30.678Z,8.80
2019-04-10T21:05:05.359Z,8.10
2019-04-10T21:07:29.922Z,8.13
2019-04-10T21:09:58.759Z,7.73
2019-04-10T21:12:28.007Z,8.27
2019-04-10T21:14:59.700Z,7.83
2019-04-10T21:17:31.937Z,7.37
2019-04-10T21:20:00.506Z,7.67
2019-04-10T21:22:29.105Z,8.10
2019-04-10T21:24:59.202Z,7.97
2019-04-10T21:27:27.947Z,7.30
2019-04-10T21:30:01.849Z,8.13
2019-04-10T21:32:38.427Z,6.73
2019-04-10T21:35:11.698Z,7.30
2019-04-10T21:37:40.369Z,7.77
2019-04-10T21:40:10.164Z,8.27
2019-04-10T21:42:39.201Z,6.87
2019-04-10T21:45:09.429Z,6.97
2019-04-10T21:47:38.150Z,6.33
2019-04-10T21:50:08.769Z,7.13
2019-04-10T21:52:37.453Z,7.20
2019-04-10T21:55:06.749Z,6.43
2019-04-10T21:57:35.309Z,6.87
2019-04-10T22:00:10.898Z,7.40
2019-04-10T22:02:40.056Z,7.40
2019-04-10T22:05:10.207Z,6.80
2019-04-10T22:07:45.837Z,6.63
2019-04-10T22:10:19.300Z,6.20
2019-04-10T22:12:52.567Z,6.40
2019-04-10T22:15:23.196Z,7.00
2019-04-10T22:17:52.397Z,7.40
2019-04-10T22:20:21.024Z,6.90
2019-04-10T22:22:49.499Z,6.90
2019-04-10T22:25:18.106Z,6.60
2019-04-10T22:27:49.948Z,6.80
2019-04-10T22:30:19.005Z,6.27
2019-04-10T22:32:47.619Z,7.07
2019-04-10T22:35:17.205Z,7.07
2019-04-10T22:37:46.326Z,6.63
2019-04-10T22:40:15.337Z,7.10
2019-04-10T22:42:46.702Z,7.13
2019-04-10T22:45:26.218Z,6.37
2019-04-10T22:47:56.238Z,7.53
2019-04-10T22:50:25.010Z,6.83
2019-04-10T22:52:54.876Z,6.97
2019-04-10T22:55:24.004Z,7.00
2019-04-10T22:57:54.777Z,7.10
2019-04-10T23:00:28.208Z,6.90
2019-04-10T23:03:03.120Z,6.63
2019-04-10T23:05:32.375Z,6.43
2019-04-10T23:08:03.793Z,6.60
2019-04-10T23:10:33.192Z,6.30
2019-04-10T23:13:05.342Z,6.87
2019-04-10T23:15:32.075Z,6.90
2019-04-10T23:18:01.307Z,6.20
2019-04-10T23:20:30.039Z,6.80
2019-04-10T23:22:58.886Z,7.97
2019-04-10T23:25:28.608Z,6.73
2019-04-10T23:27:57.176Z,7.17
2019-04-10T23:30:26.765Z,7.10
2019-04-10T23:32:55.486Z,6.37
2019-04-10T23:35:24.045Z,6.90
2019-04-10T23:37:53.074Z,7.33
2019-04-10T23:40:21.601Z,7.30
2019-04-10T23:43:02.635Z,6.33
2019-04-10T23:45:20.440Z,6.97
2019-04-10T23:47:50.589Z,7.60
2019-04-10T23:50:19.234Z,7.07
2019-04-10T23:52:47.980Z,6.87
2019-04-10T23:55:17.817Z,7.17
2019-04-10T23:57:46.464Z,7.00
